createdAt,value
2022-09-06T00:01:35.699Z,27.50
2022-09-06T00:04:04.062Z,27.50
2022-09-06T00:06:32.608Z,27.60
2022-09-06T00:09:00.876Z,27.60
2022-09-06T00:11:29.293Z,27.50
2022-09-06T00:13:58.653Z,27.30
2022-09-06T00:16:30.459Z,27.20
2022-09-06T00:18:58.961Z,27.20
2022-09-06T00:21:29.870Z,27.50
2022-09-06T00:23:57.936Z,27.50
2022-09-06T00:26:26.130Z,27.40
2022-09-06T00:28:54.162Z,27.40
2022-09-06T00:31:26.187Z,27.30
2022-09-06T00:33:54.824Z,27.20
2022-09-06T00:36:23.387Z,27.20
2022-09-06T00:38:51.565Z,27.20
2022-09-06T00:41:19.837Z,27.10
2022-09-06T00:43:47.924Z,27.10
2022-09-06T00:46:20.278Z,27.10
2022-09-06T00:48:53.361Z,27.10
2022-09-06T00:51:23.032Z,27.30
2022-09-06T00:53:51.675Z,27.40
2022-09-06T00:56:19.884Z,27.60
2022-09-06T00:58:49.653Z,27.80
2022-09-06T01:01:17.890Z,27.70
2022-09-06T01:03:46.102Z,27.60
2022-09-06T01:06:26.909Z,27.50
2022-09-06T01:09:03.304Z,27.60
2022-09-06T01:11:52.869Z,27.50
2022-09-06T01:14:34.807Z,27.70
2022-09-06T01:17:12.137Z,27.50
2022-09-06T01:20:09.705Z,27.30
2022-09-06T01:23:04.668Z,27.20
2022-09-06T01:25:39.474Z,27.10
2022-09-06T01:28:28.940Z,27.00
2022-09-06T01:31:05.927Z,26.90
2022-09-06T01:33:41.445Z,26.90
2022-09-06T01:36:14.602Z,27.10
2022-09-06T01:38:42.905Z,27.10
2022-09-06T01:41:11.541Z,27.10
2022-09-06T01:43:44.988Z,27.20
2022-09-06T01:46:20.539Z,26.90
2022-09-06T01:49:04.761Z,27.00
2022-09-06T01:51:38.911Z,26.80
2022-09-06T01:54:29.319Z,26.50
2022-09-06T01:57:11.233Z,26.40
2022-09-06T02:00:01.473Z,26.30
2022-09-06T02:02:38.318Z,26.30
2022-09-06T02:05:09.447Z,26.20
2022-09-06T02:07:39.169Z,26.30
2022-09-06T02:10:12.909Z,26.40
2022-09-06T02:12:44.489Z,26.20
2022-09-06T02:15:17.844Z,26.30
2022-09-06T02:17:51.858Z,26.30
2022-09-06T02:20:24.044Z,26.40
2022-09-06T02:22:54.175Z,26.70
2022-09-06T02:25:25.694Z,26.70
2022-09-06T02:27:54.489Z,26.90
2022-09-06T02:30:24.234Z,26.80
2022-09-06T02:32:58.294Z,26.80
2022-09-06T02:35:26.874Z,27.00
2022-09-06T02:37:56.326Z,27.00
2022-09-06T02:40:25.152Z,27.00
2022-09-06T02:42:54.118Z,27.00
2022-09-06T02:45:23.517Z,26.80
2022-09-06T02:47:51.528Z,26.70
2022-09-06T02:50:20.420Z,27.00
2022-09-06T02:53:01.274Z,26.70
2022-09-06T02:55:29.316Z,26.70
2022-09-06T02:57:57.428Z,26.90
2022-09-06T03:00:27.334Z,26.70
2022-09-06T03:02:55.736Z,26.70
2022-09-06T03:05:23.966Z,26.70
2022-09-06T03:07:52.568Z,26.80
2022-09-06T03:10:20.833Z,26.90
2022-09-06T03:12:49.424Z,27.00
2022-09-06T03:15:18.375Z,27.10
2022-09-06T03:17:47.812Z,27.10
2022-09-06T03:20:15.940Z,27.20
2022-09-06T03:22:43.960Z,27.20
2022-09-06T03:25:12.233Z,27.10
2022-09-06T03:27:40.747Z,27.20
2022-09-06T03:30:09.724Z,27.10
2022-09-06T03:32:37.801Z,27.30
2022-09-06T03:35:07.811Z,27.10
2022-09-06T03:37:36.306Z,27.10
2022-09-06T03:40:06.177Z,27.00
2022-09-06T03:42:34.389Z,27.20
2022-09-06T03:45:02.418Z,26.90
2022-09-06T03:47:32.565Z,27.00
2022-09-06T03:50:00.628Z,26.90
2022-09-06T03:52:30.025Z,26.80
2022-09-06T03:54:58.105Z,26.80
2022-09-06T03:57:26.148Z,26.90
2022-09-06T03:59:54.180Z,27.00
2022-09-06T04:02:23.646Z,26.90
2022-09-06T04:04:55.389Z,26.90
2022-09-06T04:07:23.560Z,27.00
2022-09-06T04:09:52.951Z,27.00
2022-09-06T04:12:21.152Z,27.30
2022-09-06T04:14:49.256Z,27.30
2022-09-06T04:17:17.314Z,27.30
2022-09-06T04:19:45.397Z,27.30
2022-09-06T04:22:13.562Z,27.30
2022-09-06T04:24:41.589Z,27.10
2022-09-06T04:27:11.104Z,27.30
2022-09-06T04:29:39.163Z,27.30
2022-09-06T04:32:07.580Z,27.40
2022-09-06T04:34:35.682Z,27.60
2022-09-06T04:37:03.731Z,27.80
2022-09-06T04:39:31.920Z,27.80
2022-09-06T04:42:03.303Z,27.70
2022-09-06T04:44:32.716Z,27.80
2022-09-06T04:47:09.981Z,28.00
2022-09-06T04:49:38.007Z,28.10
2022-09-06T04:52:06.085Z,28.10
2022-09-06T04:54:35.033Z,28.10
2022-09-06T04:57:03.121Z,28.10
2022-09-06T04:59:32.738Z,28.00
2022-09-06T05:02:00.904Z,28.00
2022-09-06T05:04:29.197Z,28.20
2022-09-06T05:07:04.651Z,28.20
2022-09-06T05:09:33.481Z,28.40
2022-09-06T05:12:01.891Z,28.20
2022-09-06T05:14:30.839Z,28.20
2022-09-06T05:17:00.254Z,28.30
2022-09-06T05:19:28.926Z,28.40
2022-09-06T05:21:58.214Z,28.60
2022-09-06T05:24:26.311Z,28.90
2022-09-06T05:26:54.321Z,29.00
2022-09-06T05:29:22.423Z,29.10
2022-09-06T05:31:50.505Z,29.20
2022-09-06T05:34:20.264Z,29.50
2022-09-06T05:36:48.340Z,29.40
2022-09-06T05:39:16.508Z,29.50
2022-09-06T05:41:44.529Z,29.40
2022-09-06T05:44:12.544Z,29.30
2022-09-06T05:46:43.601Z,29.20
2022-09-06T05:49:12.289Z,29.20
2022-09-06T05:51:42.202Z,29.00
2022-09-06T05:54:12.643Z,29.10
2022-09-06T05:56:40.677Z,28.90
2022-09-06T05:59:08.778Z,28.90
2022-09-06T06:01:36.877Z,28.70
2022-09-06T06:04:07.986Z,28.70
2022-09-06T06:06:36.190Z,28.70
2022-09-06T06:09:05.674Z,28.90
2022-09-06T06:11:33.706Z,29.00
2022-09-06T06:14:04.447Z,29.10
2022-09-06T06:16:32.865Z,29.00
2022-09-06T06:19:01.315Z,29.00
2022-09-06T06:21:32.725Z,29.20
2022-09-06T06:24:03.351Z,29.00
2022-09-06T06:26:34.765Z,28.80
2022-09-06T06:29:02.985Z,28.50
2022-09-06T06:31:32.303Z,28.30
2022-09-06T06:34:03.121Z,28.40
2022-09-06T06:36:33.710Z,28.60
2022-09-06T06:39:03.285Z,28.50
2022-09-06T06:41:34.064Z,28.70
2022-09-06T06:44:03.525Z,28.80
2022-09-06T06:46:33.555Z,28.90
2022-09-06T06:49:01.562Z,29.00
2022-09-06T06:51:31.949Z,28.90
2022-09-06T06:54:00.140Z,29.00
2022-09-06T06:56:30.070Z,29.20
2022-09-06T06:59:01.483Z,29.40
2022-09-06T07:01:31.472Z,29.60
2022-09-06T07:04:00.118Z,29.60
2022-09-06T07:09:18.252Z,29.50
2022-09-06T07:11:48.720Z,29.30
2022-09-06T07:14:18.597Z,29.30
2022-09-06T07:16:47.030Z,29.30
2022-09-06T07:22:10.487Z,29.40
2022-09-06T07:24:40.333Z,29.70
2022-09-06T07:29:57.757Z,29.80
2022-09-06T07:32:26.306Z,30.00
2022-09-06T07:34:54.358Z,30.10
2022-09-06T07:37:24.190Z,30.20
2022-09-06T07:39:52.690Z,30.10
2022-09-06T07:42:22.187Z,30.20
2022-09-06T07:44:51.023Z,30.30
2022-09-06T07:55:38.997Z,30.20
2022-09-06T07:58:07.069Z,30.30
2022-09-06T08:00:35.248Z,30.70
2022-09-06T08:03:06.613Z,30.80
2022-09-06T08:11:11.396Z,30.00
2022-09-06T08:13:42.186Z,30.10
2022-09-06T08:16:12.428Z,30.10
2022-09-06T08:18:42.008Z,30.30
2022-09-06T08:21:12.876Z,30.40
2022-09-06T08:23:47.601Z,30.50
2022-09-06T08:26:18.035Z,30.40
2022-09-06T08:28:48.117Z,30.30
2022-09-06T08:31:20.521Z,30.20
2022-09-06T08:33:50.010Z,30.20
2022-09-06T08:36:18.149Z,30.30
2022-09-06T08:38:46.682Z,30.10
2022-09-06T08:41:25.102Z,30.00
2022-09-06T08:46:53.188Z,30.50
2022-09-06T08:49:23.051Z,30.40
2022-09-06T08:52:33.539Z,30.20
2022-09-06T08:55:17.474Z,30.40
2022-09-06T08:57:59.237Z,30.80
2022-09-06T09:00:27.483Z,31.00
2022-09-06T09:03:04.459Z,31.10
2022-09-06T09:05:38.392Z,30.80
2022-09-06T09:08:16.067Z,30.80
2022-09-06T09:10:46.600Z,30.70
2022-09-06T09:13:23.211Z,30.80
2022-09-06T09:15:51.386Z,30.70
2022-09-06T09:18:24.173Z,30.60
2022-09-06T09:20:53.902Z,30.40
2022-09-06T09:23:21.961Z,30.50
2022-09-06T09:25:52.668Z,31.00
2022-09-06T09:28:23.735Z,31.00
2022-09-06T09:30:53.714Z,31.00
2022-09-06T09:33:30.856Z,31.10
2022-09-06T09:36:04.508Z,31.20
2022-09-06T09:38:39.160Z,31.40
2022-09-06T09:41:08.908Z,31.20
2022-09-06T09:43:40.760Z,31.40
2022-09-06T09:46:14.602Z,31.40
2022-09-06T09:48:52.381Z,31.40
2022-09-06T09:51:27.421Z,31.60
2022-09-06T09:53:57.869Z,31.60
2022-09-06T09:56:34.326Z,31.60
2022-09-06T09:59:03.739Z,31.70
2022-09-06T10:01:34.080Z,31.80
2022-09-06T10:09:44.286Z,32.00
2022-09-06T10:12:19.026Z,31.70
2022-09-06T10:14:49.504Z,31.90
2022-09-06T10:17:23.457Z,31.70
2022-09-06T10:19:51.558Z,31.80
2022-09-06T10:22:46.588Z,31.90
2022-09-06T10:25:46.361Z,31.80
2022-09-06T10:28:30.202Z,31.50
2022-09-06T10:31:24.522Z,31.50
2022-09-06T10:34:06.755Z,31.40
2022-09-06T10:36:37.780Z,31.40
2022-09-06T10:39:17.581Z,31.30
2022-09-06T10:41:59.524Z,31.50
2022-09-06T10:44:45.953Z,31.40
2022-09-06T10:47:16.570Z,31.50
2022-09-06T10:49:48.814Z,31.50
2022-09-06T10:52:24.143Z,31.80
2022-09-06T10:55:02.167Z,31.90
2022-09-06T11:00:25.487Z,32.30
2022-09-06T11:06:03.361Z,32.70
2022-09-06T11:08:47.140Z,32.60
2022-09-06T11:11:27.618Z,32.50
2022-09-06T11:13:55.736Z,32.50
2022-09-06T11:16:29.671Z,32.60
2022-09-06T11:19:04.198Z,32.40
2022-09-06T11:21:57.215Z,32.50
2022-09-06T11:24:38.436Z,32.50
2022-09-06T11:27:16.953Z,32.60
2022-09-06T11:29:52.362Z,32.50
2022-09-06T11:32:32.860Z,32.60
2022-09-06T11:35:03.912Z,32.50
2022-09-06T11:37:34.717Z,32.60
2022-09-06T11:43:15.312Z,32.70
2022-09-06T11:45:47.608Z,32.80
2022-09-06T11:48:37.312Z,32.80
2022-09-06T11:51:10.728Z,32.80
2022-09-06T11:54:16.280Z,32.80
2022-09-06T11:56:52.550Z,33.00
2022-09-06T11:59:34.637Z,32.90
2022-09-06T12:02:05.327Z,33.20
2022-09-06T12:05:11.894Z,33.20
2022-09-06T12:08:23.818Z,33.20
2022-09-06T12:10:58.645Z,33.00
2022-09-06T12:13:54.868Z,33.00
2022-09-06T12:16:23.922Z,33.10
2022-09-06T12:19:00.367Z,33.20
2022-09-06T12:21:41.020Z,33.40
2022-09-06T12:24:39.788Z,33.30
2022-09-06T12:27:15.663Z,33.50
2022-09-06T12:29:54.932Z,33.60
2022-09-06T12:32:27.879Z,33.70
2022-09-06T12:37:52.150Z,33.80
2022-09-06T12:40:21.839Z,33.40
2022-09-06T12:42:52.495Z,32.90
2022-09-06T12:45:27.051Z,32.90
2022-09-06T12:48:08.514Z,32.80
2022-09-06T12:50:37.075Z,32.80
2022-09-06T12:53:23.334Z,32.90
2022-09-06T12:56:06.090Z,33.20
2022-09-06T12:58:38.747Z,33.10
2022-09-06T13:01:13.146Z,33.40
2022-09-06T13:03:46.120Z,33.50
2022-09-06T13:06:26.760Z,33.50
2022-09-06T13:08:57.922Z,33.60
2022-09-06T13:11:31.537Z,33.50
2022-09-06T13:14:02.363Z,33.50
2022-09-06T13:16:37.657Z,33.70
2022-09-06T13:19:13.655Z,33.90
2022-09-06T13:21:43.325Z,33.70
2022-09-06T13:24:21.002Z,33.50
2022-09-06T13:26:49.536Z,33.60
2022-09-06T13:29:26.613Z,33.60
2022-09-06T13:31:56.937Z,33.90
2022-09-06T13:34:27.181Z,33.70
2022-09-06T13:37:00.927Z,33.60
2022-09-06T13:39:34.437Z,33.60
2022-09-06T13:42:07.492Z,33.50
2022-09-06T13:44:38.676Z,33.60
2022-09-06T13:47:07.424Z,33.50
2022-09-06T13:49:35.480Z,33.40
2022-09-06T13:52:05.660Z,33.40
2022-09-06T13:54:34.020Z,33.70
2022-09-06T13:57:02.651Z,33.80
2022-09-06T13:59:31.610Z,33.70
2022-09-06T14:02:04.826Z,33.80
2022-09-06T14:04:32.888Z,33.80
2022-09-06T14:07:01.206Z,33.90
2022-09-06T14:09:29.355Z,33.50
2022-09-06T14:11:57.708Z,33.30
2022-09-06T14:14:25.986Z,33.30
2022-09-06T14:16:54.075Z,33.50
2022-09-06T14:19:23.568Z,33.50
2022-09-06T14:21:51.732Z,33.40
2022-09-06T14:24:20.131Z,33.40
2022-09-06T14:26:48.747Z,33.40
2022-09-06T14:29:19.099Z,33.50
2022-09-06T14:31:48.343Z,33.30
2022-09-06T14:34:16.699Z,33.10
2022-09-06T14:36:46.153Z,32.90
2022-09-06T14:39:14.174Z,32.90
2022-09-06T14:41:42.152Z,32.80
2022-09-06T14:44:12.833Z,32.60
2022-09-06T14:46:40.844Z,32.80
2022-09-06T14:49:10.496Z,32.90
2022-09-06T14:51:39.750Z,32.40
2022-09-06T14:54:11.291Z,32.30
2022-09-06T14:56:40.652Z,32.20
2022-09-06T14:59:09.701Z,32.40
2022-09-06T15:01:38.985Z,32.20
2022-09-06T15:04:09.889Z,32.40
2022-09-06T15:06:40.592Z,32.40
2022-09-06T15:09:11.437Z,32.50
2022-09-06T15:11:42.601Z,32.70
2022-09-06T15:14:15.292Z,32.90
2022-09-06T15:16:43.685Z,32.70
2022-09-06T15:19:11.813Z,33.10
2022-09-06T15:21:39.890Z,33.20
2022-09-06T15:24:12.223Z,33.10
2022-09-06T15:26:41.092Z,32.90
2022-09-06T15:29:09.337Z,32.70
2022-09-06T15:31:38.323Z,32.50
2022-09-06T15:34:06.660Z,32.70
2022-09-06T15:36:35.053Z,32.60
2022-09-06T15:39:05.700Z,32.90
2022-09-06T15:41:37.080Z,32.80
2022-09-06T15:44:11.666Z,32.90
2022-09-06T15:46:45.596Z,32.90
2022-09-06T15:49:16.120Z,32.90
2022-09-06T15:51:45.430Z,32.90
2022-09-06T15:54:15.416Z,33.00
2022-09-06T15:56:45.818Z,32.90
2022-09-06T15:59:14.071Z,33.00
2022-09-06T16:01:42.138Z,33.10
2022-09-06T16:04:10.216Z,33.00
2022-09-06T16:06:42.052Z,33.00
2022-09-06T16:09:13.980Z,32.90
2022-09-06T16:11:44.146Z,32.80
2022-09-06T16:14:14.000Z,32.90
2022-09-06T16:16:43.317Z,32.90
2022-09-06T16:19:13.050Z,33.00
2022-09-06T16:21:42.885Z,32.90
2022-09-06T16:24:12.356Z,32.90
2022-09-06T16:26:42.286Z,32.90
2022-09-06T16:29:14.040Z,32.90
2022-09-06T16:31:42.648Z,32.80
2022-09-06T16:34:11.608Z,32.80
2022-09-06T16:36:40.130Z,32.70
2022-09-06T16:39:09.099Z,32.80
2022-09-06T16:41:45.693Z,32.70
2022-09-06T16:44:17.340Z,32.60
2022-09-06T16:46:46.688Z,32.40
2022-09-06T16:49:16.726Z,32.20
2022-09-06T16:51:45.041Z,32.20
2022-09-06T16:54:13.862Z,32.00
2022-09-06T16:56:43.790Z,32.00
2022-09-06T16:59:12.950Z,31.70
2022-09-06T17:01:44.577Z,31.70
2022-09-06T17:04:13.934Z,31.60
2022-09-06T17:06:45.815Z,31.60
2022-09-06T17:09:15.839Z,31.50
2022-09-06T17:11:43.837Z,31.50
2022-09-06T17:14:13.592Z,31.50
2022-09-06T17:17:00.785Z,31.20
2022-09-06T17:19:32.346Z,31.20
2022-09-06T17:22:00.409Z,31.10
2022-09-06T17:24:28.446Z,31.00
2022-09-06T17:26:56.587Z,31.00
2022-09-06T17:29:25.750Z,30.80
2022-09-06T17:31:55.318Z,30.80
2022-09-06T17:34:23.705Z,31.00
2022-09-06T17:36:51.961Z,31.00
2022-09-06T17:39:22.371Z,31.00
2022-09-06T17:41:53.521Z,30.80
2022-09-06T17:44:24.513Z,30.50
2022-09-06T17:47:11.444Z,30.50
2022-09-06T17:49:42.477Z,30.30
2022-09-06T17:52:10.501Z,30.10
2022-09-06T17:54:38.554Z,29.90
2022-09-06T17:57:06.548Z,29.90
2022-09-06T17:59:35.968Z,29.90
2022-09-06T18:02:05.921Z,29.80
2022-09-06T18:04:35.772Z,29.90
2022-09-06T18:07:05.326Z,29.60
2022-09-06T18:09:33.431Z,29.60
2022-09-06T18:12:01.928Z,29.30
2022-09-06T18:14:30.128Z,29.30
2022-09-06T18:16:58.213Z,29.20
2022-09-06T18:19:26.878Z,29.40
2022-09-06T18:21:55.175Z,29.40
2022-09-06T18:24:24.497Z,29.30
2022-09-06T18:26:53.530Z,28.90
2022-09-06T18:29:21.688Z,28.80
2022-09-06T18:31:53.310Z,28.90
2022-09-06T18:34:21.543Z,29.00
2022-09-06T18:36:53.246Z,28.90
2022-09-06T18:39:22.173Z,28.70
2022-09-06T18:42:07.018Z,28.60
2022-09-06T18:44:35.569Z,28.40
2022-09-06T18:47:07.920Z,28.20
2022-09-06T18:49:43.209Z,28.30
2022-09-06T18:52:13.773Z,28.30
2022-09-06T18:54:43.678Z,28.40
2022-09-06T18:57:15.346Z,28.30
2022-09-06T18:59:43.807Z,28.40
2022-09-06T19:02:12.203Z,28.20
2022-09-06T19:04:42.186Z,28.20
2022-09-06T19:07:10.219Z,28.10
2022-09-06T19:09:38.511Z,27.80
2022-09-06T19:12:06.901Z,27.80
2022-09-06T19:14:36.315Z,27.90
2022-09-06T19:17:04.554Z,27.90
2022-09-06T19:19:32.654Z,27.90
2022-09-06T19:22:00.742Z,27.90
2022-09-06T19:24:28.774Z,28.10
2022-09-06T19:26:59.945Z,28.40
2022-09-06T19:29:28.568Z,28.40
2022-09-06T19:31:58.029Z,28.20
2022-09-06T19:34:26.192Z,27.90
2022-09-06T19:36:55.322Z,27.70
2022-09-06T19:39:23.536Z,27.70
2022-09-06T19:41:51.633Z,27.50
2022-09-06T19:44:22.202Z,27.40
2022-09-06T19:46:51.057Z,27.40
2022-09-06T19:49:20.784Z,27.40
2022-09-06T19:51:50.767Z,27.50
2022-09-06T19:54:20.151Z,27.40
2022-09-06T19:56:48.737Z,27.40
2022-09-06T19:59:17.634Z,27.50
2022-09-06T20:01:47.307Z,27.40
2022-09-06T20:04:16.938Z,27.20
2022-09-06T20:06:47.225Z,27.10
2022-09-06T20:09:16.507Z,27.00
2022-09-06T20:11:44.516Z,27.10
2022-09-06T20:14:13.069Z,27.10
2022-09-06T20:16:42.452Z,27.10
2022-09-06T20:19:11.868Z,27.30
2022-09-06T20:21:40.021Z,27.30
2022-09-06T20:24:09.540Z,27.30
2022-09-06T20:26:40.356Z,27.50
2022-09-06T20:29:08.547Z,27.60
2022-09-06T20:31:37.571Z,27.40
2022-09-06T20:34:07.703Z,27.30
2022-09-06T20:36:36.464Z,27.40
2022-09-06T20:39:05.249Z,27.50
2022-09-06T20:41:34.799Z,27.40
2022-09-06T20:44:03.654Z,27.70
2022-09-06T20:46:33.795Z,27.70
2022-09-06T20:49:04.641Z,27.70
2022-09-06T20:51:34.801Z,27.70
2022-09-06T20:54:04.646Z,27.50
2022-09-06T20:56:36.096Z,27.40
2022-09-06T20:59:08.793Z,27.50
2022-09-06T21:01:40.504Z,27.40
2022-09-06T21:04:09.752Z,27.20
2022-09-06T21:06:39.867Z,27.20
2022-09-06T21:09:10.936Z,27.30
2022-09-06T21:11:41.115Z,27.30
2022-09-06T21:14:09.575Z,27.30
2022-09-06T21:16:38.742Z,27.30
2022-09-06T21:19:13.251Z,27.30
2022-09-06T21:21:41.676Z,27.40
2022-09-06T21:24:11.219Z,27.50
2022-09-06T21:26:42.787Z,27.70
2022-09-06T21:29:11.425Z,27.60
2022-09-06T21:31:39.467Z,27.60
2022-09-06T21:34:15.654Z,27.70
2022-09-06T21:36:45.154Z,27.80
2022-09-06T21:39:13.870Z,27.70
2022-09-06T21:41:44.390Z,27.70
2022-09-06T21:44:13.122Z,27.70
2022-09-06T21:46:41.957Z,27.70
2022-09-06T21:49:12.315Z,27.70
2022-09-06T21:51:43.611Z,27.70
2022-09-06T21:54:12.572Z,27.90
2022-09-06T21:56:41.254Z,27.90
2022-09-06T21:59:11.065Z,28.00
2022-09-06T22:01:40.614Z,28.20
2022-09-06T22:04:10.724Z,28.30
2022-09-06T22:06:41.682Z,28.20
2022-09-06T22:09:12.058Z,28.20
2022-09-06T22:11:41.622Z,28.10
2022-09-06T22:14:13.354Z,28.20
2022-09-06T22:16:42.191Z,28.20
2022-09-06T22:19:11.489Z,28.30
2022-09-06T22:21:39.697Z,28.30
2022-09-06T22:24:10.051Z,28.40
2022-09-06T22:26:39.817Z,28.00
2022-09-06T22:29:11.025Z,28.10
2022-09-06T22:31:39.798Z,28.20
2022-09-06T22:34:08.367Z,28.20
2022-09-06T22:36:37.058Z,28.30
2022-09-06T22:39:05.606Z,28.40
2022-09-06T22:41:34.923Z,28.40
2022-09-06T22:44:04.252Z,28.50
2022-09-06T22:46:34.294Z,28.40
2022-09-06T22:49:04.098Z,28.40
2022-09-06T22:51:32.496Z,28.40
2022-09-06T22:54:00.637Z,28.40
2022-09-06T22:56:28.768Z,28.50
2022-09-06T22:58:56.997Z,28.60
2022-09-06T23:01:25.199Z,28.50
2022-09-06T23:03:54.720Z,28.50
2022-09-06T23:06:23.258Z,28.30
2022-09-06T23:08:51.789Z,28.50
2022-09-06T23:11:20.287Z,28.40
2022-09-06T23:13:48.622Z,28.40
2022-09-06T23:16:19.345Z,28.40
2022-09-06T23:18:48.623Z,28.40
2022-09-06T23:21:21.224Z,28.20
2022-09-06T23:23:51.119Z,28.10
2022-09-06T23:26:21.563Z,28.00
2022-09-06T23:28:56.254Z,28.10
2022-09-06T23:31:26.056Z,28.00
2022-09-06T23:33:54.578Z,27.90
2022-09-06T23:36:24.438Z,27.90
2022-09-06T23:38:52.720Z,27.80
2022-09-06T23:41:20.877Z,27.70
2022-09-06T23:43:49.405Z,27.60
2022-09-06T23:46:17.830Z,27.30
2022-09-06T23:48:46.055Z,26.90
2022-09-06T23:51:14.250Z,26.90
2022-09-06T23:53:43.766Z,26.90
2022-09-06T23:56:12.456Z,26.90
2022-09-06T23:58:40.964Z,26.90
